sensor_id;sensor_type;location;lat;lon;timestamp;temperature;humidity
17529;DHT22;8882;53.192;8.184;2023-08-20T00:00:09;17.50;99.90
17529;DHT22;8882;53.192;8.184;2023-08-20T00:02:37;17.60;99.90
17529;DHT22;8882;53.192;8.184;2023-08-20T00:05:03;17.60;99.90
17529;DHT22;8882;53.192;8.184;2023-08-20T00:07:30;17.50;99.90
17529;DHT22;8882;53.192;8.184;2023-08-20T00:09:56;17.50;99.90
17529;DHT22;8882;53.192;8.184;2023-08-20T00:12:21;17.60;99.90
17529;DHT22;8882;53.192;8.184;2023-08-20T00:15:04;17.50;99.90
17529;DHT22;8882;53.192;8.184;2023-08-20T00:17:31;17.50;99.90
17529;DHT22;8882;53.192;8.184;2023-08-20T00:19:57;17.40;99.90
17529;DHT22;8882;53.192;8.184;2023-08-20T00:22:23;17.40;99.90
17529;DHT22;8882;53.192;8.184;2023-08-20T00:24:50;17.30;99.90
17529;DHT22;8882;53.192;8.184;2023-08-20T00:27:17;17.30;99.90
17529;DHT22;8882;53.192;8.184;2023-08-20T00:29:43;17.40;99.90
17529;DHT22;8882;53.192;8.184;2023-08-20T00:32:08;17.30;99.90
17529;DHT22;8882;53.192;8.184;2023-08-20T00:34:34;17.30;99.90
17529;DHT22;8882;53.192;8.184;2023-08-20T00:37:01;17.20;99.90
17529;DHT22;8882;53.192;8.184;2023-08-20T00:39:26;17.20;99.90
17529;DHT22;8882;53.192;8.184;2023-08-20T00:41:52;17.20;99.90
17529;DHT22;8882;53.192;8.184;2023-08-20T00:44:17;17.20;99.90
17529;DHT22;8882;53.192;8.184;2023-08-20T00:46:43;17.10;99.90
17529;DHT22;8882;53.192;8.184;2023-08-20T00:49:09;17.00;99.90
17529;DHT22;8882;53.192;8.184;2023-08-20T00:51:34;17.00;99.90
17529;DHT22;8882;53.192;8.184;2023-08-20T00:54:02;17.00;99.90
17529;DHT22;8882;53.192;8.184;2023-08-20T00:56:28;17.00;99.90
17529;DHT22;8882;53.192;8.184;2023-08-20T00:58:55;16.90;99.90
17529;DHT22;8882;53.192;8.184;2023-08-20T01:01:21;16.90;99.90
17529;DHT22;8882;53.192;8.184;2023-08-20T01:03:47;16.90;99.90
17529;DHT22;8882;53.192;8.184;2023-08-20T01:08:58;16.90;99.90
17529;DHT22;8882;53.192;8.184;2023-08-20T01:11:33;16.90;99.90
17529;DHT22;8882;53.192;8.184;2023-08-20T01:14:01;16.90;99.90
17529;DHT22;8882;53.192;8.184;2023-08-20T01:16:26;16.80;99.90
17529;DHT22;8882;53.192;8.184;2023-08-20T01:18:52;16.80;99.90
17529;DHT22;8882;53.192;8.184;2023-08-20T01:21:38;16.80;99.90
17529;DHT22;8882;53.192;8.184;2023-08-20T01:24:28;16.70;99.90
17529;DHT22;8882;53.192;8.184;2023-08-20T01:29:51;16.70;99.90
17529;DHT22;8882;53.192;8.184;2023-08-20T01:32:17;16.60;99.90
17529;DHT22;8882;53.192;8.184;2023-08-20T01:34:43;16.70;99.90
17529;DHT22;8882;53.192;8.184;2023-08-20T01:37:10;16.60;99.90
17529;DHT22;8882;53.192;8.184;2023-08-20T01:39:36;16.60;99.90
17529;DHT22;8882;53.192;8.184;2023-08-20T01:42:02;16.60;99.90
17529;DHT22;8882;53.192;8.184;2023-08-20T01:44:27;16.50;99.90
17529;DHT22;8882;53.192;8.184;2023-08-20T01:46:53;16.50;99.90
17529;DHT22;8882;53.192;8.184;2023-08-20T01:49:18;16.50;99.90
17529;DHT22;8882;53.192;8.184;2023-08-20T01:51:44;16.50;99.90
17529;DHT22;8882;53.192;8.184;2023-08-20T01:54:09;16.40;99.90
17529;DHT22;8882;53.192;8.184;2023-08-20T01:56:35;16.40;99.90
17529;DHT22;8882;53.192;8.184;2023-08-20T01:59:01;16.40;99.90
17529;DHT22;8882;53.192;8.184;2023-08-20T02:01:27;16.40;99.90
17529;DHT22;8882;53.192;8.184;2023-08-20T02:03:52;16.40;99.90
17529;DHT22;8882;53.192;8.184;2023-08-20T02:06:18;16.40;99.90
17529;DHT22;8882;53.192;8.184;2023-08-20T02:08:43;16.30;99.90
17529;DHT22;8882;53.192;8.184;2023-08-20T02:11:09;16.30;99.90
17529;DHT22;8882;53.192;8.184;2023-08-20T02:13:34;16.20;99.90
17529;DHT22;8882;53.192;8.184;2023-08-20T02:16:02;16.20;99.90
17529;DHT22;8882;53.192;8.184;2023-08-20T02:18:28;16.20;99.90
17529;DHT22;8882;53.192;8.184;2023-08-20T02:20:54;16.20;99.90
17529;DHT22;8882;53.192;8.184;2023-08-20T02:23:20;16.20;99.90
17529;DHT22;8882;53.192;8.184;2023-08-20T02:25:46;16.20;99.90
17529;DHT22;8882;53.192;8.184;2023-08-20T02:28:12;16.10;99.90
17529;DHT22;8882;53.192;8.184;2023-08-20T02:30:42;16.10;99.90
17529;DHT22;8882;53.192;8.184;2023-08-20T02:33:08;16.10;99.90
17529;DHT22;8882;53.192;8.184;2023-08-20T02:35:33;16.10;99.90
17529;DHT22;8882;53.192;8.184;2023-08-20T02:37:59;16.00;99.90
17529;DHT22;8882;53.192;8.184;2023-08-20T02:40:24;16.00;99.90
17529;DHT22;8882;53.192;8.184;2023-08-20T02:42:50;16.00;99.90
17529;DHT22;8882;53.192;8.184;2023-08-20T02:45:15;16.00;99.90
17529;DHT22;8882;53.192;8.184;2023-08-20T02:47:41;16.00;99.90
17529;DHT22;8882;53.192;8.184;2023-08-20T02:50:06;16.10;99.90
17529;DHT22;8882;53.192;8.184;2023-08-20T02:52:32;16.10;99.90
17529;DHT22;8882;53.192;8.184;2023-08-20T02:54:57;16.20;99.90
17529;DHT22;8882;53.192;8.184;2023-08-20T02:57:23;16.10;99.90
17529;DHT22;8882;53.192;8.184;2023-08-20T02:59:48;16.10;99.90
17529;DHT22;8882;53.192;8.184;2023-08-20T03:02:14;16.00;99.90
17529;DHT22;8882;53.192;8.184;2023-08-20T03:04:39;15.90;99.90
17529;DHT22;8882;53.192;8.184;2023-08-20T03:07:05;15.90;99.90
17529;DHT22;8882;53.192;8.184;2023-08-20T03:09:30;15.90;99.90
17529;DHT22;8882;53.192;8.184;2023-08-20T03:11:56;15.90;99.90
17529;DHT22;8882;53.192;8.184;2023-08-20T03:14:21;15.80;99.90
17529;DHT22;8882;53.192;8.184;2023-08-20T03:16:47;15.80;99.90
17529;DHT22;8882;53.192;8.184;2023-08-20T03:19:14;15.80;99.90
17529;DHT22;8882;53.192;8.184;2023-08-20T03:21:40;15.90;99.90
17529;DHT22;8882;53.192;8.184;2023-08-20T03:24:06;15.80;99.90
17529;DHT22;8882;53.192;8.184;2023-08-20T03:26:32;15.80;99.90
17529;DHT22;8882;53.192;8.184;2023-08-20T03:28:58;15.80;99.90
17529;DHT22;8882;53.192;8.184;2023-08-20T03:31:24;15.80;99.90
17529;DHT22;8882;53.192;8.184;2023-08-20T03:33:50;15.80;99.90
17529;DHT22;8882;53.192;8.184;2023-08-20T03:36:15;15.70;99.90
17529;DHT22;8882;53.192;8.184;2023-08-20T03:38:41;15.70;99.90
17529;DHT22;8882;53.192;8.184;2023-08-20T03:41:07;15.70;99.90
17529;DHT22;8882;53.192;8.184;2023-08-20T03:43:32;15.60;99.90
17529;DHT22;8882;53.192;8.184;2023-08-20T03:45:58;15.60;99.90
17529;DHT22;8882;53.192;8.184;2023-08-20T03:48:23;15.60;99.90
17529;DHT22;8882;53.192;8.184;2023-08-20T03:50:49;15.70;99.90
17529;DHT22;8882;53.192;8.184;2023-08-20T03:53:15;15.70;99.90
17529;DHT22;8882;53.192;8.184;2023-08-20T03:55:41;15.70;99.90
17529;DHT22;8882;53.192;8.184;2023-08-20T03:58:07;15.70;99.90
17529;DHT22;8882;53.192;8.184;2023-08-20T04:00:34;15.70;99.90
17529;DHT22;8882;53.192;8.184;2023-08-20T04:03:00;15.70;99.90
17529;DHT22;8882;53.192;8.184;2023-08-20T04:05:25;15.70;99.90
17529;DHT22;8882;53.192;8.184;2023-08-20T04:07:51;15.70;99.90
17529;DHT22;8882;53.192;8.184;2023-08-20T04:10:17;15.70;99.90
17529;DHT22;8882;53.192;8.184;2023-08-20T04:12:42;15.70;99.90
17529;DHT22;8882;53.192;8.184;2023-08-20T04:15:08;15.60;99.90
17529;DHT22;8882;53.192;8.184;2023-08-20T04:17:33;15.60;99.90
17529;DHT22;8882;53.192;8.184;2023-08-20T04:19:59;15.70;99.90
17529;DHT22;8882;53.192;8.184;2023-08-20T04:22:24;15.70;99.90
17529;DHT22;8882;53.192;8.184;2023-08-20T04:24:50;15.70;99.90
17529;DHT22;8882;53.192;8.184;2023-08-20T04:27:16;15.70;99.90
17529;DHT22;8882;53.192;8.184;2023-08-20T04:29:41;15.70;99.90
17529;DHT22;8882;53.192;8.184;2023-08-20T04:32:07;15.70;99.90
17529;DHT22;8882;53.192;8.184;2023-08-20T04:34:32;15.70;99.90
17529;DHT22;8882;53.192;8.184;2023-08-20T04:36:58;15.70;99.90
17529;DHT22;8882;53.192;8.184;2023-08-20T04:39:23;15.70;99.90
17529;DHT22;8882;53.192;8.184;2023-08-20T04:41:49;15.70;99.90
17529;DHT22;8882;53.192;8.184;2023-08-20T04:44:15;15.60;99.90
17529;DHT22;8882;53.192;8.184;2023-08-20T04:46:42;15.60;99.90
17529;DHT22;8882;53.192;8.184;2023-08-20T04:49:08;15.60;99.90
17529;DHT22;8882;53.192;8.184;2023-08-20T04:51:33;15.60;99.90
17529;DHT22;8882;53.192;8.184;2023-08-20T04:53:59;15.60;99.90
17529;DHT22;8882;53.192;8.184;2023-08-20T04:56:24;15.70;99.90
17529;DHT22;8882;53.192;8.184;2023-08-20T04:58:50;15.70;99.90
17529;DHT22;8882;53.192;8.184;2023-08-20T05:01:15;15.70;99.90
17529;DHT22;8882;53.192;8.184;2023-08-20T05:03:41;15.70;99.90
17529;DHT22;8882;53.192;8.184;2023-08-20T05:06:07;15.70;99.90
17529;DHT22;8882;53.192;8.184;2023-08-20T05:08:32;15.70;99.90
17529;DHT22;8882;53.192;8.184;2023-08-20T05:10:57;15.70;99.90
17529;DHT22;8882;53.192;8.184;2023-08-20T05:13:23;15.70;99.90
17529;DHT22;8882;53.192;8.184;2023-08-20T05:15:49;15.80;99.90
17529;DHT22;8882;53.192;8.184;2023-08-20T05:18:14;15.80;99.90
17529;DHT22;8882;53.192;8.184;2023-08-20T05:20:40;15.80;99.90
17529;DHT22;8882;53.192;8.184;2023-08-20T05:23:06;15.90;99.90
17529;DHT22;8882;53.192;8.184;2023-08-20T05:25:32;16.00;99.90
17529;DHT22;8882;53.192;8.184;2023-08-20T05:27:57;16.00;99.90
17529;DHT22;8882;53.192;8.184;2023-08-20T05:30:23;16.10;99.90
17529;DHT22;8882;53.192;8.184;2023-08-20T05:32:48;16.20;99.90
17529;DHT22;8882;53.192;8.184;2023-08-20T05:35:14;16.30;99.90
17529;DHT22;8882;53.192;8.184;2023-08-20T05:37:39;16.40;99.90
17529;DHT22;8882;53.192;8.184;2023-08-20T05:40:05;16.50;99.90
17529;DHT22;8882;53.192;8.184;2023-08-20T05:42:31;16.60;99.90
17529;DHT22;8882;53.192;8.184;2023-08-20T05:44:57;16.80;99.90
17529;DHT22;8882;53.192;8.184;2023-08-20T05:47:22;16.90;99.90
17529;DHT22;8882;53.192;8.184;2023-08-20T05:49:47;16.90;99.90
17529;DHT22;8882;53.192;8.184;2023-08-20T05:52:13;17.00;99.90
17529;DHT22;8882;53.192;8.184;2023-08-20T05:54:39;17.10;99.90
17529;DHT22;8882;53.192;8.184;2023-08-20T05:57:04;17.20;99.90
17529;DHT22;8882;53.192;8.184;2023-08-20T05:59:30;17.30;99.90
17529;DHT22;8882;53.192;8.184;2023-08-20T06:01:55;17.30;99.90
17529;DHT22;8882;53.192;8.184;2023-08-20T06:04:21;17.30;99.90
17529;DHT22;8882;53.192;8.184;2023-08-20T06:06:47;17.40;99.90
17529;DHT22;8882;53.192;8.184;2023-08-20T06:09:12;17.50;99.90
17529;DHT22;8882;53.192;8.184;2023-08-20T06:11:38;17.70;99.90
17529;DHT22;8882;53.192;8.184;2023-08-20T06:14:04;17.80;99.90
17529;DHT22;8882;53.192;8.184;2023-08-20T06:16:29;17.90;99.90
17529;DHT22;8882;53.192;8.184;2023-08-20T06:18:55;17.90;99.90
17529;DHT22;8882;53.192;8.184;2023-08-20T06:21:20;18.00;99.90
17529;DHT22;8882;53.192;8.184;2023-08-20T06:23:46;18.00;99.90
17529;DHT22;8882;53.192;8.184;2023-08-20T06:26:11;18.10;99.90
17529;DHT22;8882;53.192;8.184;2023-08-20T06:28:37;18.20;99.90
17529;DHT22;8882;53.192;8.184;2023-08-20T06:31:02;18.30;99.90
17529;DHT22;8882;53.192;8.184;2023-08-20T06:33:28;18.40;99.90
17529;DHT22;8882;53.192;8.184;2023-08-20T06:35:54;18.50;99.90
17529;DHT22;8882;53.192;8.184;2023-08-20T06:38:19;18.60;99.90
17529;DHT22;8882;53.192;8.184;2023-08-20T06:40:45;18.70;99.90
17529;DHT22;8882;53.192;8.184;2023-08-20T06:43:10;18.70;99.90
17529;DHT22;8882;53.192;8.184;2023-08-20T06:45:36;18.70;99.90
17529;DHT22;8882;53.192;8.184;2023-08-20T06:48:01;18.80;99.90
17529;DHT22;8882;53.192;8.184;2023-08-20T06:50:27;18.90;99.90
17529;DHT22;8882;53.192;8.184;2023-08-20T06:52:52;19.00;99.90
17529;DHT22;8882;53.192;8.184;2023-08-20T06:55:18;19.10;99.90
17529;DHT22;8882;53.192;8.184;2023-08-20T06:57:43;19.20;99.90
17529;DHT22;8882;53.192;8.184;2023-08-20T07:00:09;19.30;99.90
17529;DHT22;8882;53.192;8.184;2023-08-20T07:02:35;19.30;99.90
17529;DHT22;8882;53.192;8.184;2023-08-20T07:05:00;19.50;99.90
17529;DHT22;8882;53.192;8.184;2023-08-20T07:07:26;19.70;99.90
17529;DHT22;8882;53.192;8.184;2023-08-20T07:09:51;19.80;99.90
17529;DHT22;8882;53.192;8.184;2023-08-20T07:12:16;19.90;99.90
17529;DHT22;8882;53.192;8.184;2023-08-20T07:14:42;20.10;99.90
17529;DHT22;8882;53.192;8.184;2023-08-20T07:17:08;20.10;99.90
17529;DHT22;8882;53.192;8.184;2023-08-20T07:19:33;20.30;99.90
17529;DHT22;8882;53.192;8.184;2023-08-20T07:21:59;20.20;99.90
17529;DHT22;8882;53.192;8.184;2023-08-20T07:24:24;20.40;99.90
17529;DHT22;8882;53.192;8.184;2023-08-20T07:26:54;20.60;99.90
17529;DHT22;8882;53.192;8.184;2023-08-20T07:29:25;20.40;99.90
17529;DHT22;8882;53.192;8.184;2023-08-20T07:31:51;20.60;99.90
17529;DHT22;8882;53.192;8.184;2023-08-20T07:34:16;20.50;99.90
17529;DHT22;8882;53.192;8.184;2023-08-20T07:36:42;20.60;99.90
17529;DHT22;8882;53.192;8.184;2023-08-20T07:39:07;20.90;99.90
17529;DHT22;8882;53.192;8.184;2023-08-20T07:41:34;21.10;99.90
17529;DHT22;8882;53.192;8.184;2023-08-20T07:43:59;21.00;99.90
17529;DHT22;8882;53.192;8.184;2023-08-20T07:46:25;21.20;99.90
17529;DHT22;8882;53.192;8.184;2023-08-20T07:48:50;21.20;99.90
17529;DHT22;8882;53.192;8.184;2023-08-20T07:51:16;21.30;99.90
17529;DHT22;8882;53.192;8.184;2023-08-20T07:53:41;21.40;99.90
17529;DHT22;8882;53.192;8.184;2023-08-20T07:56:07;21.60;99.90
17529;DHT22;8882;53.192;8.184;2023-08-20T07:58:34;21.70;99.90
17529;DHT22;8882;53.192;8.184;2023-08-20T08:00:59;21.90;99.90
17529;DHT22;8882;53.192;8.184;2023-08-20T08:03:28;22.00;99.90
17529;DHT22;8882;53.192;8.184;2023-08-20T08:05:54;22.00;99.90
17529;DHT22;8882;53.192;8.184;2023-08-20T08:08:20;21.80;99.90
17529;DHT22;8882;53.192;8.184;2023-08-20T08:10:47;22.00;99.90
17529;DHT22;8882;53.192;8.184;2023-08-20T08:13:14;22.20;99.90
17529;DHT22;8882;53.192;8.184;2023-08-20T08:15:40;22.40;99.90
17529;DHT22;8882;53.192;8.184;2023-08-20T08:18:06;22.50;99.90
17529;DHT22;8882;53.192;8.184;2023-08-20T08:20:33;22.60;99.90
17529;DHT22;8882;53.192;8.184;2023-08-20T08:22:58;22.80;99.90
17529;DHT22;8882;53.192;8.184;2023-08-20T08:25:24;23.00;99.90
17529;DHT22;8882;53.192;8.184;2023-08-20T08:27:50;23.10;99.90
17529;DHT22;8882;53.192;8.184;2023-08-20T08:30:15;23.00;99.90
17529;DHT22;8882;53.192;8.184;2023-08-20T08:32:41;23.10;99.90
17529;DHT22;8882;53.192;8.184;2023-08-20T08:35:07;23.30;99.90
17529;DHT22;8882;53.192;8.184;2023-08-20T08:37:32;23.30;99.90
17529;DHT22;8882;53.192;8.184;2023-08-20T08:39:58;23.20;99.90
17529;DHT22;8882;53.192;8.184;2023-08-20T08:42:24;23.40;99.90
17529;DHT22;8882;53.192;8.184;2023-08-20T08:44:51;23.50;99.90
17529;DHT22;8882;53.192;8.184;2023-08-20T08:47:18;23.60;99.90
17529;DHT22;8882;53.192;8.184;2023-08-20T08:49:45;23.70;99.90
17529;DHT22;8882;53.192;8.184;2023-08-20T08:52:12;24.00;99.90
17529;DHT22;8882;53.192;8.184;2023-08-20T08:54:38;24.10;99.90
17529;DHT22;8882;53.192;8.184;2023-08-20T08:57:04;24.10;99.90
17529;DHT22;8882;53.192;8.184;2023-08-20T08:59:30;24.30;99.90
17529;DHT22;8882;53.192;8.184;2023-08-20T09:01:56;24.40;99.90
17529;DHT22;8882;53.192;8.184;2023-08-20T09:04:22;24.40;99.90
17529;DHT22;8882;53.192;8.184;2023-08-20T09:06:52;24.40;99.90
17529;DHT22;8882;53.192;8.184;2023-08-20T09:09:19;24.30;99.90
17529;DHT22;8882;53.192;8.184;2023-08-20T09:11:45;24.10;99.90
17529;DHT22;8882;53.192;8.184;2023-08-20T09:14:21;24.10;99.90
17529;DHT22;8882;53.192;8.184;2023-08-20T09:16:54;24.30;99.90
17529;DHT22;8882;53.192;8.184;2023-08-20T09:19:20;24.40;99.90
17529;DHT22;8882;53.192;8.184;2023-08-20T09:21:48;24.60;1.00
17529;DHT22;8882;53.192;8.184;2023-08-20T09:24:15;24.70;1.00
17529;DHT22;8882;53.192;8.184;2023-08-20T09:26:45;24.70;1.00
17529;DHT22;8882;53.192;8.184;2023-08-20T09:29:11;24.80;1.00
17529;DHT22;8882;53.192;8.184;2023-08-20T09:31:38;25.00;1.00
17529;DHT22;8882;53.192;8.184;2023-08-20T09:34:04;25.20;1.00
17529;DHT22;8882;53.192;8.184;2023-08-20T09:36:34;25.30;1.00
17529;DHT22;8882;53.192;8.184;2023-08-20T09:39:02;25.40;1.00
17529;DHT22;8882;53.192;8.184;2023-08-20T09:41:28;25.40;1.00
17529;DHT22;8882;53.192;8.184;2023-08-20T09:43:58;25.60;1.00
17529;DHT22;8882;53.192;8.184;2023-08-20T09:46:26;25.50;1.00
17529;DHT22;8882;53.192;8.184;2023-08-20T09:48:57;25.40;1.00
17529;DHT22;8882;53.192;8.184;2023-08-20T09:51:27;25.40;1.00
17529;DHT22;8882;53.192;8.184;2023-08-20T09:54:50;25.60;1.00
17529;DHT22;8882;53.192;8.184;2023-08-20T09:57:33;25.60;1.00
17529;DHT22;8882;53.192;8.184;2023-08-20T10:00:00;25.50;1.00
17529;DHT22;8882;53.192;8.184;2023-08-20T10:02:26;25.40;1.00
17529;DHT22;8882;53.192;8.184;2023-08-20T10:04:52;25.60;1.00
17529;DHT22;8882;53.192;8.184;2023-08-20T10:07:18;25.60;1.00
17529;DHT22;8882;53.192;8.184;2023-08-20T10:09:44;25.70;1.00
17529;DHT22;8882;53.192;8.184;2023-08-20T10:12:12;26.00;1.00
17529;DHT22;8882;53.192;8.184;2023-08-20T10:14:38;26.10;1.00
17529;DHT22;8882;53.192;8.184;2023-08-20T10:17:08;26.10;1.00
17529;DHT22;8882;53.192;8.184;2023-08-20T10:19:36;26.30;1.00
17529;DHT22;8882;53.192;8.184;2023-08-20T10:22:03;25.80;1.00
17529;DHT22;8882;53.192;8.184;2023-08-20T10:24:29;26.10;1.00
17529;DHT22;8882;53.192;8.184;2023-08-20T10:27:09;26.20;1.00
17529;DHT22;8882;53.192;8.184;2023-08-20T10:29:39;26.00;1.00
17529;DHT22;8882;53.192;8.184;2023-08-20T10:32:13;26.00;1.00
17529;DHT22;8882;53.192;8.184;2023-08-20T10:34:43;26.00;1.00
17529;DHT22;8882;53.192;8.184;2023-08-20T10:37:13;26.00;1.00
17529;DHT22;8882;53.192;8.184;2023-08-20T10:39:39;26.20;1.00
17529;DHT22;8882;53.192;8.184;2023-08-20T10:45:07;26.00;1.00
17529;DHT22;8882;53.192;8.184;2023-08-20T10:50:09;26.00;1.00
17529;DHT22;8882;53.192;8.184;2023-08-20T10:52:48;25.70;1.00
17529;DHT22;8882;53.192;8.184;2023-08-20T10:55:14;25.60;1.00
17529;DHT22;8882;53.192;8.184;2023-08-20T10:57:40;25.70;1.00
17529;DHT22;8882;53.192;8.184;2023-08-20T11:00:06;26.00;1.00
17529;DHT22;8882;53.192;8.184;2023-08-20T11:02:40;26.40;1.00
17529;DHT22;8882;53.192;8.184;2023-08-20T11:05:17;26.40;1.00
17529;DHT22;8882;53.192;8.184;2023-08-20T11:07:45;26.50;1.00
17529;DHT22;8882;53.192;8.184;2023-08-20T11:10:16;26.40;1.00
17529;DHT22;8882;53.192;8.184;2023-08-20T11:12:42;26.40;1.00
17529;DHT22;8882;53.192;8.184;2023-08-20T11:15:09;26.30;1.00
17529;DHT22;8882;53.192;8.184;2023-08-20T11:17:44;26.30;1.00
17529;DHT22;8882;53.192;8.184;2023-08-20T11:20:10;26.30;1.00
17529;DHT22;8882;53.192;8.184;2023-08-20T11:22:38;26.40;1.00
17529;DHT22;8882;53.192;8.184;2023-08-20T11:25:04;26.40;1.00
17529;DHT22;8882;53.192;8.184;2023-08-20T11:27:30;26.50;1.00
17529;DHT22;8882;53.192;8.184;2023-08-20T11:29:57;26.70;1.00
17529;DHT22;8882;53.192;8.184;2023-08-20T11:32:23;26.70;99.90
17529;DHT22;8882;53.192;8.184;2023-08-20T11:34:49;26.40;1.00
17529;DHT22;8882;53.192;8.184;2023-08-20T11:37:19;26.40;1.00
17529;DHT22;8882;53.192;8.184;2023-08-20T11:39:48;26.30;99.90
17529;DHT22;8882;53.192;8.184;2023-08-20T11:42:14;26.20;1.00
17529;DHT22;8882;53.192;8.184;2023-08-20T11:44:45;26.30;1.00
17529;DHT22;8882;53.192;8.184;2023-08-20T11:47:17;26.20;1.00
17529;DHT22;8882;53.192;8.184;2023-08-20T11:49:43;26.20;1.00
17529;DHT22;8882;53.192;8.184;2023-08-20T11:52:09;26.30;1.00
17529;DHT22;8882;53.192;8.184;2023-08-20T11:54:35;26.50;1.00
17529;DHT22;8882;53.192;8.184;2023-08-20T11:57:03;26.60;99.90
17529;DHT22;8882;53.192;8.184;2023-08-20T11:59:28;26.80;1.00
17529;DHT22;8882;53.192;8.184;2023-08-20T12:01:58;26.90;99.90
17529;DHT22;8882;53.192;8.184;2023-08-20T12:04:27;27.00;99.90
17529;DHT22;8882;53.192;8.184;2023-08-20T12:07:08;27.20;99.90
17529;DHT22;8882;53.192;8.184;2023-08-20T12:09:35;27.30;99.90
17529;DHT22;8882;53.192;8.184;2023-08-20T12:12:01;27.40;99.90
17529;DHT22;8882;53.192;8.184;2023-08-20T12:14:27;27.50;99.90
17529;DHT22;8882;53.192;8.184;2023-08-20T12:16:55;27.40;99.90
17529;DHT22;8882;53.192;8.184;2023-08-20T12:19:21;27.50;99.90
17529;DHT22;8882;53.192;8.184;2023-08-20T12:21:46;27.20;99.90
17529;DHT22;8882;53.192;8.184;2023-08-20T12:24:12;27.20;99.90
17529;DHT22;8882;53.192;8.184;2023-08-20T12:26:39;27.00;99.90
17529;DHT22;8882;53.192;8.184;2023-08-20T12:29:05;27.00;99.90
17529;DHT22;8882;53.192;8.184;2023-08-20T12:31:32;26.90;99.90
17529;DHT22;8882;53.192;8.184;2023-08-20T12:33:57;27.00;99.90
17529;DHT22;8882;53.192;8.184;2023-08-20T12:36:23;27.10;99.90
17529;DHT22;8882;53.192;8.184;2023-08-20T12:38:49;27.20;99.90
17529;DHT22;8882;53.192;8.184;2023-08-20T12:41:14;26.90;99.90
17529;DHT22;8882;53.192;8.184;2023-08-20T12:43:40;27.10;99.90
17529;DHT22;8882;53.192;8.184;2023-08-20T12:46:06;27.00;99.90
17529;DHT22;8882;53.192;8.184;2023-08-20T12:48:31;27.00;99.90
17529;DHT22;8882;53.192;8.184;2023-08-20T12:50:57;27.10;99.90
17529;DHT22;8882;53.192;8.184;2023-08-20T12:53:22;27.20;99.90
17529;DHT22;8882;53.192;8.184;2023-08-20T12:55:48;26.90;99.90
17529;DHT22;8882;53.192;8.184;2023-08-20T12:58:13;26.60;99.90
17529;DHT22;8882;53.192;8.184;2023-08-20T13:00:39;26.50;99.90
17529;DHT22;8882;53.192;8.184;2023-08-20T13:03:05;26.60;99.90
17529;DHT22;8882;53.192;8.184;2023-08-20T13:05:31;26.90;99.90
17529;DHT22;8882;53.192;8.184;2023-08-20T13:07:57;27.00;99.90
17529;DHT22;8882;53.192;8.184;2023-08-20T13:10:23;27.20;99.90
17529;DHT22;8882;53.192;8.184;2023-08-20T13:12:51;27.30;99.90
17529;DHT22;8882;53.192;8.184;2023-08-20T13:15:18;27.30;99.90
17529;DHT22;8882;53.192;8.184;2023-08-20T13:17:45;27.40;99.90
17529;DHT22;8882;53.192;8.184;2023-08-20T13:20:11;27.50;99.90
17529;DHT22;8882;53.192;8.184;2023-08-20T13:22:37;27.40;99.90
17529;DHT22;8882;53.192;8.184;2023-08-20T13:25:02;27.20;99.90
17529;DHT22;8882;53.192;8.184;2023-08-20T13:27:30;27.20;99.90
17529;DHT22;8882;53.192;8.184;2023-08-20T13:29:56;27.10;99.90
17529;DHT22;8882;53.192;8.184;2023-08-20T13:32:21;27.20;99.90
17529;DHT22;8882;53.192;8.184;2023-08-20T13:34:47;27.20;99.90
17529;DHT22;8882;53.192;8.184;2023-08-20T13:37:12;27.30;99.90
17529;DHT22;8882;53.192;8.184;2023-08-20T13:39:38;27.30;99.90
17529;DHT22;8882;53.192;8.184;2023-08-20T13:42:03;27.40;99.90
17529;DHT22;8882;53.192;8.184;2023-08-20T13:44:29;27.40;99.90
17529;DHT22;8882;53.192;8.184;2023-08-20T13:46:55;27.40;99.90
17529;DHT22;8882;53.192;8.184;2023-08-20T13:49:20;27.20;99.90
17529;DHT22;8882;53.192;8.184;2023-08-20T13:51:46;27.20;99.90
17529;DHT22;8882;53.192;8.184;2023-08-20T13:54:11;27.10;99.90
17529;DHT22;8882;53.192;8.184;2023-08-20T13:56:37;27.00;99.90
17529;DHT22;8882;53.192;8.184;2023-08-20T13:59:02;27.00;99.90
17529;DHT22;8882;53.192;8.184;2023-08-20T14:01:28;27.20;99.90
17529;DHT22;8882;53.192;8.184;2023-08-20T14:03:53;27.10;99.90
17529;DHT22;8882;53.192;8.184;2023-08-20T14:06:19;27.00;99.90
17529;DHT22;8882;53.192;8.184;2023-08-20T14:08:45;26.80;99.90
17529;DHT22;8882;53.192;8.184;2023-08-20T14:11:10;26.70;99.90
17529;DHT22;8882;53.192;8.184;2023-08-20T14:13:36;26.60;99.90
17529;DHT22;8882;53.192;8.184;2023-08-20T14:16:02;26.60;99.90
17529;DHT22;8882;53.192;8.184;2023-08-20T14:18:27;26.40;99.90
17529;DHT22;8882;53.192;8.184;2023-08-20T14:20:53;26.40;99.90
17529;DHT22;8882;53.192;8.184;2023-08-20T14:23:19;26.40;99.90
17529;DHT22;8882;53.192;8.184;2023-08-20T14:25:44;26.50;99.90
17529;DHT22;8882;53.192;8.184;2023-08-20T14:28:10;26.50;99.90
17529;DHT22;8882;53.192;8.184;2023-08-20T14:30:39;26.50;99.90
17529;DHT22;8882;53.192;8.184;2023-08-20T14:33:05;26.50;99.90
17529;DHT22;8882;53.192;8.184;2023-08-20T14:35:31;26.30;99.90
17529;DHT22;8882;53.192;8.184;2023-08-20T14:37:56;26.30;99.90
17529;DHT22;8882;53.192;8.184;2023-08-20T14:40:22;26.20;99.90
17529;DHT22;8882;53.192;8.184;2023-08-20T14:42:49;26.20;99.90
17529;DHT22;8882;53.192;8.184;2023-08-20T14:45:14;26.20;99.90
17529;DHT22;8882;53.192;8.184;2023-08-20T14:47:40;26.20;99.90
17529;DHT22;8882;53.192;8.184;2023-08-20T14:50:06;26.20;99.90
17529;DHT22;8882;53.192;8.184;2023-08-20T14:52:31;26.10;99.90
17529;DHT22;8882;53.192;8.184;2023-08-20T14:54:57;26.00;99.90
17529;DHT22;8882;53.192;8.184;2023-08-20T14:57:23;26.00;99.90
17529;DHT22;8882;53.192;8.184;2023-08-20T14:59:48;25.90;99.90
17529;DHT22;8882;53.192;8.184;2023-08-20T15:02:15;25.70;99.90
17529;DHT22;8882;53.192;8.184;2023-08-20T15:04:40;25.60;99.90
17529;DHT22;8882;53.192;8.184;2023-08-20T15:07:06;25.60;99.90
17529;DHT22;8882;53.192;8.184;2023-08-20T15:09:31;25.60;99.90
17529;DHT22;8882;53.192;8.184;2023-08-20T15:11:57;25.70;99.90
17529;DHT22;8882;53.192;8.184;2023-08-20T15:14:22;25.60;99.90
17529;DHT22;8882;53.192;8.184;2023-08-20T15:16:48;25.70;99.90
17529;DHT22;8882;53.192;8.184;2023-08-20T15:19:13;25.60;99.90
17529;DHT22;8882;53.192;8.184;2023-08-20T15:21:39;25.70;99.90
17529;DHT22;8882;53.192;8.184;2023-08-20T15:24:05;25.60;99.90
17529;DHT22;8882;53.192;8.184;2023-08-20T15:26:30;25.60;99.90
17529;DHT22;8882;53.192;8.184;2023-08-20T15:28:56;25.50;99.90
17529;DHT22;8882;53.192;8.184;2023-08-20T15:31:22;25.40;99.90
17529;DHT22;8882;53.192;8.184;2023-08-20T15:33:47;25.30;99.90
17529;DHT22;8882;53.192;8.184;2023-08-20T15:36:13;25.30;99.90
17529;DHT22;8882;53.192;8.184;2023-08-20T15:38:38;25.20;99.90
17529;DHT22;8882;53.192;8.184;2023-08-20T15:41:04;25.20;99.90
17529;DHT22;8882;53.192;8.184;2023-08-20T15:43:29;25.30;99.90
17529;DHT22;8882;53.192;8.184;2023-08-20T15:45:55;25.40;99.90
17529;DHT22;8882;53.192;8.184;2023-08-20T15:48:20;25.50;99.90
17529;DHT22;8882;53.192;8.184;2023-08-20T15:50:46;25.50;99.90
17529;DHT22;8882;53.192;8.184;2023-08-20T15:53:12;25.50;99.90